sensor_id;sensor_type;location;lat;lon;timestamp;temperature;humidity
72338;DHT22;60294;64.134;-21.862;2022-12-10T00:01:09;-3274.90;69.60
72338;DHT22;60294;64.134;-21.862;2022-12-10T00:03:35;-3274.80;70.00
72338;DHT22;60294;64.134;-21.862;2022-12-10T00:06:03;-3274.70;69.90
72338;DHT22;60294;64.134;-21.862;2022-12-10T00:08:29;-3274.70;70.30
72338;DHT22;60294;64.134;-21.862;2022-12-10T00:10:55;-3274.60;70.30
72338;DHT22;60294;64.134;-21.862;2022-12-10T00:13:21;-3274.60;70.40
72338;DHT22;60294;64.134;-21.862;2022-12-10T00:15:47;-3274.60;70.60
72338;DHT22;60294;64.134;-21.862;2022-12-10T00:18:13;-3274.60;70.40
72338;DHT22;60294;64.134;-21.862;2022-12-10T00:20:39;-3274.60;70.10
72338;DHT22;60294;64.134;-21.862;2022-12-10T00:23:06;-3274.50;70.00
72338;DHT22;60294;64.134;-21.862;2022-12-10T00:25:32;-3274.40;70.00
72338;DHT22;60294;64.134;-21.862;2022-12-10T00:27:58;-3274.50;70.00
72338;DHT22;60294;64.134;-21.862;2022-12-10T00:30:24;-3274.40;70.00
72338;DHT22;60294;64.134;-21.862;2022-12-10T00:32:50;-3274.30;70.00
72338;DHT22;60294;64.134;-21.862;2022-12-10T00:35:15;-3274.30;70.40
72338;DHT22;60294;64.134;-21.862;2022-12-10T00:37:41;-3274.20;70.40
72338;DHT22;60294;64.134;-21.862;2022-12-10T00:40:08;-3274.10;70.30
72338;DHT22;60294;64.134;-21.862;2022-12-10T00:42:34;-3274.00;70.70
72338;DHT22;60294;64.134;-21.862;2022-12-10T00:44:59;-3274.00;70.60
72338;DHT22;60294;64.134;-21.862;2022-12-10T00:47:25;-3274.00;70.60
72338;DHT22;60294;64.134;-21.862;2022-12-10T00:49:51;-3273.90;70.70
72338;DHT22;60294;64.134;-21.862;2022-12-10T00:52:17;-3273.90;70.80
72338;DHT22;60294;64.134;-21.862;2022-12-10T00:54:42;-3273.80;70.80
72338;DHT22;60294;64.134;-21.862;2022-12-10T00:57:08;-3273.80;71.00
72338;DHT22;60294;64.134;-21.862;2022-12-10T00:59:34;-3273.80;71.00
72338;DHT22;60294;64.134;-21.862;2022-12-10T01:02:00;-3273.70;71.10
72338;DHT22;60294;64.134;-21.862;2022-12-10T01:04:25;-3273.70;71.50
72338;DHT22;60294;64.134;-21.862;2022-12-10T01:06:53;-3273.70;71.40
72338;DHT22;60294;64.134;-21.862;2022-12-10T01:09:22;-3273.70;71.00
72338;DHT22;60294;64.134;-21.862;2022-12-10T01:11:49;-3273.80;70.90
72338;DHT22;60294;64.134;-21.862;2022-12-10T01:14:19;-3273.70;70.80
72338;DHT22;60294;64.134;-21.862;2022-12-10T01:16:45;-3273.70;70.70
72338;DHT22;60294;64.134;-21.862;2022-12-10T01:19:11;-3273.70;70.60
72338;DHT22;60294;64.134;-21.862;2022-12-10T01:21:38;-3273.70;71.00
72338;DHT22;60294;64.134;-21.862;2022-12-10T01:24:04;-3273.70;71.10
72338;DHT22;60294;64.134;-21.862;2022-12-10T01:26:32;-3273.70;70.80
72338;DHT22;60294;64.134;-21.862;2022-12-10T01:28:58;-3273.70;70.90
72338;DHT22;60294;64.134;-21.862;2022-12-10T01:31:30;-3273.70;70.80
72338;DHT22;60294;64.134;-21.862;2022-12-10T01:33:57;-3273.70;70.90
72338;DHT22;60294;64.134;-21.862;2022-12-10T01:36:31;-3273.70;70.60
72338;DHT22;60294;64.134;-21.862;2022-12-10T01:38:58;-3273.70;71.00
72338;DHT22;60294;64.134;-21.862;2022-12-10T01:41:28;-3273.70;70.90
72338;DHT22;60294;64.134;-21.862;2022-12-10T01:44:00;-3273.70;70.90
72338;DHT22;60294;64.134;-21.862;2022-12-10T01:46:32;-3273.60;71.50
72338;DHT22;60294;64.134;-21.862;2022-12-10T01:49:00;-3273.70;71.40
72338;DHT22;60294;64.134;-21.862;2022-12-10T01:51:29;-3273.70;71.30
72338;DHT22;60294;64.134;-21.862;2022-12-10T01:53:56;-3273.60;71.50
72338;DHT22;60294;64.134;-21.862;2022-12-10T01:56:22;-3273.60;71.70
72338;DHT22;60294;64.134;-21.862;2022-12-10T01:58:54;-3273.60;71.80
72338;DHT22;60294;64.134;-21.862;2022-12-10T02:09:38;-3273.60;71.70
72338;DHT22;60294;64.134;-21.862;2022-12-10T02:14:54;-3273.60;71.70
72338;DHT22;60294;64.134;-21.862;2022-12-10T02:17:27;-3273.60;71.10
72338;DHT22;60294;64.134;-21.862;2022-12-10T02:20:17;-3273.50;71.20
72338;DHT22;60294;64.134;-21.862;2022-12-10T02:23:10;-3273.50;71.50
72338;DHT22;60294;64.134;-21.862;2022-12-10T02:30:59;-3273.70;71.60
72338;DHT22;60294;64.134;-21.862;2022-12-10T02:33:27;-3273.70;71.60
72338;DHT22;60294;64.134;-21.862;2022-12-10T02:35:54;-3273.70;72.20
72338;DHT22;60294;64.134;-21.862;2022-12-10T02:38:29;-3273.80;72.30
72338;DHT22;60294;64.134;-21.862;2022-12-10T02:41:02;-3273.80;71.80
72338;DHT22;60294;64.134;-21.862;2022-12-10T02:43:30;-3273.80;72.00
72338;DHT22;60294;64.134;-21.862;2022-12-10T02:45:59;-3273.70;71.70
72338;DHT22;60294;64.134;-21.862;2022-12-10T02:48:26;-3273.80;72.50
72338;DHT22;60294;64.134;-21.862;2022-12-10T02:50:52;-3273.80;72.00
72338;DHT22;60294;64.134;-21.862;2022-12-10T02:53:18;-3273.80;71.90
72338;DHT22;60294;64.134;-21.862;2022-12-10T02:58:37;-3273.70;72.00
72338;DHT22;60294;64.134;-21.862;2022-12-10T03:01:16;-3273.70;71.70
72338;DHT22;60294;64.134;-21.862;2022-12-10T03:03:59;-3273.70;71.50
72338;DHT22;60294;64.134;-21.862;2022-12-10T03:06:53;-3273.70;71.20
72338;DHT22;60294;64.134;-21.862;2022-12-10T03:09:27;-3273.60;71.00
72338;DHT22;60294;64.134;-21.862;2022-12-10T03:11:59;-3273.60;70.80
72338;DHT22;60294;64.134;-21.862;2022-12-10T03:14:30;-3273.50;70.70
72338;DHT22;60294;64.134;-21.862;2022-12-10T03:16:58;-3273.40;70.70
72338;DHT22;60294;64.134;-21.862;2022-12-10T03:19:41;-3273.40;71.00
72338;DHT22;60294;64.134;-21.862;2022-12-10T03:22:09;-3273.30;71.00
72338;DHT22;60294;64.134;-21.862;2022-12-10T03:24:37;-3273.20;71.10
72338;DHT22;60294;64.134;-21.862;2022-12-10T03:27:05;-3273.20;71.20
72338;DHT22;60294;64.134;-21.862;2022-12-10T03:29:36;-3273.20;71.30
72338;DHT22;60294;64.134;-21.862;2022-12-10T03:32:03;-3273.10;71.40
72338;DHT22;60294;64.134;-21.862;2022-12-10T03:34:29;-3273.10;71.60
72338;DHT22;60294;64.134;-21.862;2022-12-10T03:36:55;-3273.00;71.80
72338;DHT22;60294;64.134;-21.862;2022-12-10T03:39:22;-3273.00;72.20
72338;DHT22;60294;64.134;-21.862;2022-12-10T03:41:49;-3273.00;71.90
72338;DHT22;60294;64.134;-21.862;2022-12-10T03:44:27;-3273.00;72.00
72338;DHT22;60294;64.134;-21.862;2022-12-10T03:46:53;-3272.90;72.20
72338;DHT22;60294;64.134;-21.862;2022-12-10T03:49:19;-3272.90;72.30
72338;DHT22;60294;64.134;-21.862;2022-12-10T03:51:44;-3272.80;72.40
72338;DHT22;60294;64.134;-21.862;2022-12-10T03:54:10;-3272.70;72.80
72338;DHT22;60294;64.134;-21.862;2022-12-10T03:56:36;-3272.70;72.70
72338;DHT22;60294;64.134;-21.862;2022-12-10T03:59:02;-3272.60;72.80
72338;DHT22;60294;64.134;-21.862;2022-12-10T04:01:28;-3272.60;72.90
72338;DHT22;60294;64.134;-21.862;2022-12-10T04:03:53;-3272.70;73.10
72338;DHT22;60294;64.134;-21.862;2022-12-10T04:06:19;-3272.70;73.00
72338;DHT22;60294;64.134;-21.862;2022-12-10T04:08:46;-3272.60;72.90
72338;DHT22;60294;64.134;-21.862;2022-12-10T04:11:14;-3272.50;72.80
72338;DHT22;60294;64.134;-21.862;2022-12-10T04:13:41;-3272.50;72.90
72338;DHT22;60294;64.134;-21.862;2022-12-10T04:16:25;-3272.50;73.20
72338;DHT22;60294;64.134;-21.862;2022-12-10T04:18:52;-3272.50;73.30
72338;DHT22;60294;64.134;-21.862;2022-12-10T04:21:18;-3272.40;73.40
72338;DHT22;60294;64.134;-21.862;2022-12-10T04:24:03;-3272.30;73.60
72338;DHT22;60294;64.134;-21.862;2022-12-10T04:26:47;-3272.20;74.20
72338;DHT22;60294;64.134;-21.862;2022-12-10T04:29:24;-3272.20;74.10
72338;DHT22;60294;64.134;-21.862;2022-12-10T04:31:50;-3272.20;74.10
72338;DHT22;60294;64.134;-21.862;2022-12-10T04:34:16;-3272.20;73.90
72338;DHT22;60294;64.134;-21.862;2022-12-10T04:36:42;-3272.20;73.80
72338;DHT22;60294;64.134;-21.862;2022-12-10T04:39:08;-3272.20;73.80
72338;DHT22;60294;64.134;-21.862;2022-12-10T04:41:39;-3272.30;73.70
72338;DHT22;60294;64.134;-21.862;2022-12-10T04:44:05;-3272.30;73.70
72338;DHT22;60294;64.134;-21.862;2022-12-10T04:46:31;-3272.30;73.70
72338;DHT22;60294;64.134;-21.862;2022-12-10T04:48:57;-3272.40;73.70
72338;DHT22;60294;64.134;-21.862;2022-12-10T04:51:23;-3272.40;73.70
72338;DHT22;60294;64.134;-21.862;2022-12-10T04:53:49;-3272.50;73.80
72338;DHT22;60294;64.134;-21.862;2022-12-10T04:56:14;-3272.40;73.50
72338;DHT22;60294;64.134;-21.862;2022-12-10T04:58:40;-3272.50;73.70
72338;DHT22;60294;64.134;-21.862;2022-12-10T05:01:08;-3272.50;73.90
72338;DHT22;60294;64.134;-21.862;2022-12-10T05:03:34;-3272.50;73.90
72338;DHT22;60294;64.134;-21.862;2022-12-10T05:06:01;-3272.50;73.90
72338;DHT22;60294;64.134;-21.862;2022-12-10T05:08:28;-3272.50;73.80
72338;DHT22;60294;64.134;-21.862;2022-12-10T05:10:55;-3272.50;73.30
72338;DHT22;60294;64.134;-21.862;2022-12-10T05:13:21;-3272.50;72.90
72338;DHT22;60294;64.134;-21.862;2022-12-10T05:15:47;-3272.60;73.00
72338;DHT22;60294;64.134;-21.862;2022-12-10T05:18:12;-3272.60;72.80
72338;DHT22;60294;64.134;-21.862;2022-12-10T05:20:38;-3272.60;72.90
72338;DHT22;60294;64.134;-21.862;2022-12-10T05:23:04;-3272.60;72.60
72338;DHT22;60294;64.134;-21.862;2022-12-10T05:25:48;-3272.60;72.80
72338;DHT22;60294;64.134;-21.862;2022-12-10T05:28:23;-3272.60;72.70
72338;DHT22;60294;64.134;-21.862;2022-12-10T05:30:49;-3272.60;73.30
72338;DHT22;60294;64.134;-21.862;2022-12-10T05:33:15;-3272.50;73.40
72338;DHT22;60294;64.134;-21.862;2022-12-10T05:35:41;-3272.50;73.70
72338;DHT22;60294;64.134;-21.862;2022-12-10T05:38:07;-3272.40;73.00
72338;DHT22;60294;64.134;-21.862;2022-12-10T05:40:39;-3272.30;72.40
72338;DHT22;60294;64.134;-21.862;2022-12-10T05:43:05;-3272.30;72.50
72338;DHT22;60294;64.134;-21.862;2022-12-10T05:45:33;-3272.20;72.30
72338;DHT22;60294;64.134;-21.862;2022-12-10T05:47:59;-3272.20;72.30
72338;DHT22;60294;64.134;-21.862;2022-12-10T05:50:26;-3272.10;72.30
72338;DHT22;60294;64.134;-21.862;2022-12-10T05:52:52;-3272.10;72.40
72338;DHT22;60294;64.134;-21.862;2022-12-10T05:55:18;-3272.10;72.40
72338;DHT22;60294;64.134;-21.862;2022-12-10T05:57:44;-3272.10;72.50
72338;DHT22;60294;64.134;-21.862;2022-12-10T06:00:10;-3272.10;72.60
72338;DHT22;60294;64.134;-21.862;2022-12-10T06:02:36;-3272.10;72.60
72338;DHT22;60294;64.134;-21.862;2022-12-10T06:05:02;-3272.20;72.70
72338;DHT22;60294;64.134;-21.862;2022-12-10T06:07:29;-3272.20;72.60
72338;DHT22;60294;64.134;-21.862;2022-12-10T06:09:55;-3272.20;72.30
72338;DHT22;60294;64.134;-21.862;2022-12-10T06:12:21;-3272.10;72.20
72338;DHT22;60294;64.134;-21.862;2022-12-10T06:14:47;-3272.00;72.60
72338;DHT22;60294;64.134;-21.862;2022-12-10T06:17:13;-3272.10;72.80
72338;DHT22;60294;64.134;-21.862;2022-12-10T06:19:39;-3272.00;72.80
72338;DHT22;60294;64.134;-21.862;2022-12-10T06:22:04;-3272.00;73.00
72338;DHT22;60294;64.134;-21.862;2022-12-10T06:24:30;-3271.90;73.00
72338;DHT22;60294;64.134;-21.862;2022-12-10T06:26:56;-3271.90;73.30
72338;DHT22;60294;64.134;-21.862;2022-12-10T06:29:23;-3272.00;73.40
72338;DHT22;60294;64.134;-21.862;2022-12-10T06:31:49;-3271.90;73.00
72338;DHT22;60294;64.134;-21.862;2022-12-10T06:34:15;-3271.90;73.40
72338;DHT22;60294;64.134;-21.862;2022-12-10T06:36:40;-3271.90;73.40
72338;DHT22;60294;64.134;-21.862;2022-12-10T06:39:06;-3271.80;73.40
72338;DHT22;60294;64.134;-21.862;2022-12-10T06:41:32;-3271.70;73.20
72338;DHT22;60294;64.134;-21.862;2022-12-10T06:43:58;-3271.70;73.10
72338;DHT22;60294;64.134;-21.862;2022-12-10T06:46:25;-3271.70;73.20
72338;DHT22;60294;64.134;-21.862;2022-12-10T06:48:52;-3271.70;73.30
72338;DHT22;60294;64.134;-21.862;2022-12-10T06:51:18;-3271.60;72.90
72338;DHT22;60294;64.134;-21.862;2022-12-10T06:53:44;-3271.60;73.30
72338;DHT22;60294;64.134;-21.862;2022-12-10T06:56:18;-3271.50;73.10
72338;DHT22;60294;64.134;-21.862;2022-12-10T06:58:44;-3271.50;73.20
72338;DHT22;60294;64.134;-21.862;2022-12-10T07:01:12;-3271.70;73.60
72338;DHT22;60294;64.134;-21.862;2022-12-10T07:03:38;-3271.80;73.90
72338;DHT22;60294;64.134;-21.862;2022-12-10T07:06:08;-3271.90;73.40
72338;DHT22;60294;64.134;-21.862;2022-12-10T07:08:35;-3271.90;72.90
72338;DHT22;60294;64.134;-21.862;2022-12-10T07:11:10;-3271.90;72.80
72338;DHT22;60294;64.134;-21.862;2022-12-10T07:13:37;-3271.90;72.80
72338;DHT22;60294;64.134;-21.862;2022-12-10T07:16:10;-3271.80;73.20
72338;DHT22;60294;64.134;-21.862;2022-12-10T07:18:36;-3272.00;73.00
72338;DHT22;60294;64.134;-21.862;2022-12-10T07:21:16;-3271.90;73.10
72338;DHT22;60294;64.134;-21.862;2022-12-10T07:23:42;-3272.00;73.10
72338;DHT22;60294;64.134;-21.862;2022-12-10T07:26:08;-3272.00;72.90
72338;DHT22;60294;64.134;-21.862;2022-12-10T07:28:34;-3272.20;73.20
72338;DHT22;60294;64.134;-21.862;2022-12-10T07:31:03;-3272.20;72.60
72338;DHT22;60294;64.134;-21.862;2022-12-10T07:33:30;-3272.30;72.30
72338;DHT22;60294;64.134;-21.862;2022-12-10T07:35:56;-3272.30;72.50
72338;DHT22;60294;64.134;-21.862;2022-12-10T07:38:25;-3272.30;72.70
72338;DHT22;60294;64.134;-21.862;2022-12-10T07:40:51;-3272.30;72.40
72338;DHT22;60294;64.134;-21.862;2022-12-10T07:43:17;-3272.30;72.20
72338;DHT22;60294;64.134;-21.862;2022-12-10T07:45:43;-3272.20;72.50
72338;DHT22;60294;64.134;-21.862;2022-12-10T07:48:09;-3272.30;72.70
72338;DHT22;60294;64.134;-21.862;2022-12-10T07:50:35;-3272.30;72.70
72338;DHT22;60294;64.134;-21.862;2022-12-10T07:53:01;-3272.20;72.40
72338;DHT22;60294;64.134;-21.862;2022-12-10T07:55:27;-3272.30;72.40
72338;DHT22;60294;64.134;-21.862;2022-12-10T07:57:53;-3272.20;72.10
72338;DHT22;60294;64.134;-21.862;2022-12-10T08:00:18;-3272.20;72.60
72338;DHT22;60294;64.134;-21.862;2022-12-10T08:02:44;-3272.20;72.40
72338;DHT22;60294;64.134;-21.862;2022-12-10T08:05:10;-3272.20;72.90
72338;DHT22;60294;64.134;-21.862;2022-12-10T08:07:36;-3272.20;72.90
72338;DHT22;60294;64.134;-21.862;2022-12-10T08:10:03;-3272.20;72.60
72338;DHT22;60294;64.134;-21.862;2022-12-10T08:12:29;-3272.20;72.90
72338;DHT22;60294;64.134;-21.862;2022-12-10T08:14:54;-3272.30;73.20
72338;DHT22;60294;64.134;-21.862;2022-12-10T08:17:20;-3272.20;72.60
72338;DHT22;60294;64.134;-21.862;2022-12-10T08:19:48;-3272.30;72.40
72338;DHT22;60294;64.134;-21.862;2022-12-10T08:22:16;-3272.20;72.40
72338;DHT22;60294;64.134;-21.862;2022-12-10T08:24:42;-3272.10;72.50
72338;DHT22;60294;64.134;-21.862;2022-12-10T08:27:07;-3272.10;72.30
72338;DHT22;60294;64.134;-21.862;2022-12-10T08:29:33;-3272.00;72.40
72338;DHT22;60294;64.134;-21.862;2022-12-10T08:31:59;-3271.90;72.40
72338;DHT22;60294;64.134;-21.862;2022-12-10T08:34:25;-3271.80;72.80
72338;DHT22;60294;64.134;-21.862;2022-12-10T08:36:51;-3271.70;72.80
72338;DHT22;60294;64.134;-21.862;2022-12-10T08:39:16;-3271.70;73.20
72338;DHT22;60294;64.134;-21.862;2022-12-10T08:41:44;-3271.60;73.50
72338;DHT22;60294;64.134;-21.862;2022-12-10T08:44:11;-3271.60;73.60
72338;DHT22;60294;64.134;-21.862;2022-12-10T08:46:37;-3271.50;73.60
72338;DHT22;60294;64.134;-21.862;2022-12-10T08:49:04;-3271.50;73.80
72338;DHT22;60294;64.134;-21.862;2022-12-10T08:51:30;-3271.50;73.90
72338;DHT22;60294;64.134;-21.862;2022-12-10T08:53:56;-3271.60;73.90
72338;DHT22;60294;64.134;-21.862;2022-12-10T08:56:22;-3271.60;74.00
72338;DHT22;60294;64.134;-21.862;2022-12-10T08:58:48;-3271.50;73.90
72338;DHT22;60294;64.134;-21.862;2022-12-10T09:01:16;-3271.60;74.10
72338;DHT22;60294;64.134;-21.862;2022-12-10T09:03:42;-3271.60;73.80
72338;DHT22;60294;64.134;-21.862;2022-12-10T09:06:14;-3271.60;73.60
72338;DHT22;60294;64.134;-21.862;2022-12-10T09:08:40;-3271.60;73.70
72338;DHT22;60294;64.134;-21.862;2022-12-10T09:11:15;-3271.70;73.70
72338;DHT22;60294;64.134;-21.862;2022-12-10T09:13:41;-3271.60;73.50
72338;DHT22;60294;64.134;-21.862;2022-12-10T09:16:08;-3271.50;73.50
72338;DHT22;60294;64.134;-21.862;2022-12-10T09:18:35;-3271.50;73.80
72338;DHT22;60294;64.134;-21.862;2022-12-10T09:21:06;-3271.60;73.90
72338;DHT22;60294;64.134;-21.862;2022-12-10T09:23:32;-3271.60;73.70
72338;DHT22;60294;64.134;-21.862;2022-12-10T09:25:58;-3271.50;73.60
72338;DHT22;60294;64.134;-21.862;2022-12-10T09:28:23;-3271.50;73.50
72338;DHT22;60294;64.134;-21.862;2022-12-10T09:30:59;-3271.50;74.00
72338;DHT22;60294;64.134;-21.862;2022-12-10T09:33:27;-3271.40;73.60
72338;DHT22;60294;64.134;-21.862;2022-12-10T09:35:53;-3271.40;73.50
72338;DHT22;60294;64.134;-21.862;2022-12-10T09:38:20;-3271.50;73.60
72338;DHT22;60294;64.134;-21.862;2022-12-10T09:40:59;-3271.50;73.60
72338;DHT22;60294;64.134;-21.862;2022-12-10T09:49:22;-3271.50;73.60
72338;DHT22;60294;64.134;-21.862;2022-12-10T09:51:50;-3271.50;73.70
72338;DHT22;60294;64.134;-21.862;2022-12-10T09:54:27;-3271.50;73.30
72338;DHT22;60294;64.134;-21.862;2022-12-10T09:56:55;-3271.60;73.10
72338;DHT22;60294;64.134;-21.862;2022-12-10T09:59:36;-3271.60;72.90
72338;DHT22;60294;64.134;-21.862;2022-12-10T10:04:36;-3271.50;73.10
72338;DHT22;60294;64.134;-21.862;2022-12-10T10:07:02;-3271.40;73.30
72338;DHT22;60294;64.134;-21.862;2022-12-10T10:09:30;-3271.40;73.30
72338;DHT22;60294;64.134;-21.862;2022-12-10T10:11:58;-3271.40;73.50
72338;DHT22;60294;64.134;-21.862;2022-12-10T10:14:28;-3271.40;73.50
72338;DHT22;60294;64.134;-21.862;2022-12-10T10:17:04;-3271.50;73.60
72338;DHT22;60294;64.134;-21.862;2022-12-10T10:19:34;-3271.50;73.70
72338;DHT22;60294;64.134;-21.862;2022-12-10T10:22:03;-3271.50;73.70
72338;DHT22;60294;64.134;-21.862;2022-12-10T10:24:39;-3271.60;73.80
72338;DHT22;60294;64.134;-21.862;2022-12-10T10:27:29;-3271.60;73.30
72338;DHT22;60294;64.134;-21.862;2022-12-10T10:29:58;-3271.60;73.00
72338;DHT22;60294;64.134;-21.862;2022-12-10T10:35:06;-3271.50;73.20
72338;DHT22;60294;64.134;-21.862;2022-12-10T10:40:01;-3271.50;73.30
72338;DHT22;60294;64.134;-21.862;2022-12-10T10:42:39;-3271.40;73.30
72338;DHT22;60294;64.134;-21.862;2022-12-10T10:48:31;-3271.20;73.20
72338;DHT22;60294;64.134;-21.862;2022-12-10T10:53:50;-3271.20;73.80
72338;DHT22;60294;64.134;-21.862;2022-12-10T10:56:28;-3271.30;73.90
72338;DHT22;60294;64.134;-21.862;2022-12-10T11:01:24;-3271.30;73.60
72338;DHT22;60294;64.134;-21.862;2022-12-10T11:03:56;-3271.40;73.80
72338;DHT22;60294;64.134;-21.862;2022-12-10T11:06:23;-3271.30;73.50
72338;DHT22;60294;64.134;-21.862;2022-12-10T11:08:50;-3271.40;73.50
72338;DHT22;60294;64.134;-21.862;2022-12-10T11:11:20;-3271.50;73.40
72338;DHT22;60294;64.134;-21.862;2022-12-10T11:13:47;-3271.50;73.60
72338;DHT22;60294;64.134;-21.862;2022-12-10T11:18:59;-3271.70;72.90
72338;DHT22;60294;64.134;-21.862;2022-12-10T11:21:29;-3271.90;72.70
72338;DHT22;60294;64.134;-21.862;2022-12-10T11:23:56;-3272.00;72.30
72338;DHT22;60294;64.134;-21.862;2022-12-10T11:29:36;-3271.90;71.40
72338;DHT22;60294;64.134;-21.862;2022-12-10T11:35:05;-3271.80;71.30
72338;DHT22;60294;64.134;-21.862;2022-12-10T11:41:02;-3271.70;71.40
72338;DHT22;60294;64.134;-21.862;2022-12-10T11:43:44;-3271.70;71.20
72338;DHT22;60294;64.134;-21.862;2022-12-10T11:52:07;-3271.90;71.60
72338;DHT22;60294;64.134;-21.862;2022-12-10T11:57:50;-3271.80;71.60
72338;DHT22;60294;64.134;-21.862;2022-12-10T12:00:23;-3271.90;72.20
72338;DHT22;60294;64.134;-21.862;2022-12-10T12:03:32;-3272.00;72.30
72338;DHT22;60294;64.134;-21.862;2022-12-10T12:11:35;-3272.00;72.10
72338;DHT22;60294;64.134;-21.862;2022-12-10T12:14:16;-3272.00;71.90
72338;DHT22;60294;64.134;-21.862;2022-12-10T12:16:49;-3272.10;71.60
72338;DHT22;60294;64.134;-21.862;2022-12-10T12:19:28;-3272.00;70.40
72338;DHT22;60294;64.134;-21.862;2022-12-10T12:22:02;-3272.00;70.80
72338;DHT22;60294;64.134;-21.862;2022-12-10T12:24:38;-3272.00;70.40
72338;DHT22;60294;64.134;-21.862;2022-12-10T12:27:30;-3272.00;70.60
72338;DHT22;60294;64.134;-21.862;2022-12-10T12:32:49;-3272.20;69.80
72338;DHT22;60294;64.134;-21.862;2022-12-10T12:37:54;-3272.20;69.40
72338;DHT22;60294;64.134;-21.862;2022-12-10T12:40:34;-3272.20;69.90
72338;DHT22;60294;64.134;-21.862;2022-12-10T12:43:04;-3272.30;70.10
72338;DHT22;60294;64.134;-21.862;2022-12-10T12:45:43;-3272.10;69.80
72338;DHT22;60294;64.134;-21.862;2022-12-10T12:48:46;-3272.20;70.20
72338;DHT22;60294;64.134;-21.862;2022-12-10T12:51:42;-3272.30;70.20
72338;DHT22;60294;64.134;-21.862;2022-12-10T12:54:11;-3272.40;70.20
72338;DHT22;60294;64.134;-21.862;2022-12-10T13:04:56;-3272.50;69.40
72338;DHT22;60294;64.134;-21.862;2022-12-10T13:10:42;-3272.50;69.20
72338;DHT22;60294;64.134;-21.862;2022-12-10T13:15:33;-3272.50;69.20
72338;DHT22;60294;64.134;-21.862;2022-12-10T13:21:25;-3272.70;69.60
72338;DHT22;60294;64.134;-21.862;2022-12-10T13:23:53;-3272.70;69.70
72338;DHT22;60294;64.134;-21.862;2022-12-10T13:26:28;-3272.70;68.70
72338;DHT22;60294;64.134;-21.862;2022-12-10T13:28:55;-3272.70;68.30
72338;DHT22;60294;64.134;-21.862;2022-12-10T13:41:33;-3272.90;68.50
72338;DHT22;60294;64.134;-21.862;2022-12-10T13:44:45;-3273.00;67.70
72338;DHT22;60294;64.134;-21.862;2022-12-10T13:47:41;-3273.20;67.00
72338;DHT22;60294;64.134;-21.862;2022-12-10T13:58:14;-3273.40;64.40
72338;DHT22;60294;64.134;-21.862;2022-12-10T14:00:58;-3273.40;64.40
72338;DHT22;60294;64.134;-21.862;2022-12-10T14:06:26;-3273.60;63.80
72338;DHT22;60294;64.134;-21.862;2022-12-10T14:09:45;-3273.80;64.30
72338;DHT22;60294;64.134;-21.862;2022-12-10T14:11:58;-3274.00;63.80
72338;DHT22;60294;64.134;-21.862;2022-12-10T14:14:35;-3274.30;63.20
72338;DHT22;60294;64.134;-21.862;2022-12-10T14:17:09;-3274.20;61.80
72338;DHT22;60294;64.134;-21.862;2022-12-10T14:19:36;-3274.00;62.20
72338;DHT22;60294;64.134;-21.862;2022-12-10T14:22:06;-3273.90;62.60
72338;DHT22;60294;64.134;-21.862;2022-12-10T14:24:38;-3274.10;62.70
72338;DHT22;60294;64.134;-21.862;2022-12-10T14:27:16;-3274.50;62.00
72338;DHT22;60294;64.134;-21.862;2022-12-10T14:29:47;-3274.80;60.80
72338;DHT22;60294;64.134;-21.862;2022-12-10T14:32:25;-3275.10;60.50
72338;DHT22;60294;64.134;-21.862;2022-12-10T14:34:55;-3275.40;59.90
72338;DHT22;60294;64.134;-21.862;2022-12-10T14:37:25;-3275.50;58.60
72338;DHT22;60294;64.134;-21.862;2022-12-10T14:39:53;-3275.60;58.20
72338;DHT22;60294;64.134;-21.862;2022-12-10T14:42:20;-3275.30;58.20
72338;DHT22;60294;64.134;-21.862;2022-12-10T14:44:46;-3274.80;58.60
72338;DHT22;60294;64.134;-21.862;2022-12-10T14:47:18;-3274.40;60.10
72338;DHT22;60294;64.134;-21.862;2022-12-10T14:49:47;-3274.00;61.20
72338;DHT22;60294;64.134;-21.862;2022-12-10T14:52:16;-3273.70;62.50
72338;DHT22;60294;64.134;-21.862;2022-12-10T14:54:43;-3273.50;63.60
72338;DHT22;60294;64.134;-21.862;2022-12-10T14:57:17;-3273.40;64.50
72338;DHT22;60294;64.134;-21.862;2022-12-10T15:02:30;-3273.20;65.30
72338;DHT22;60294;64.134;-21.862;2022-12-10T15:04:57;-3273.10;65.20
72338;DHT22;60294;64.134;-21.862;2022-12-10T15:07:25;-3273.20;65.80
72338;DHT22;60294;64.134;-21.862;2022-12-10T15:09:53;-3273.20;65.00
72338;DHT22;60294;64.134;-21.862;2022-12-10T15:12:35;-3273.40;65.50
72338;DHT22;60294;64.134;-21.862;2022-12-10T15:15:27;-3273.50;64.80
72338;DHT22;60294;64.134;-21.862;2022-12-10T15:18:18;-3273.30;65.20
72338;DHT22;60294;64.134;-21.862;2022-12-10T15:23:19;-3273.00;66.30
72338;DHT22;60294;64.134;-21.862;2022-12-10T15:26:00;-3272.80;66.90
72338;DHT22;60294;64.134;-21.862;2022-12-10T15:28:29;-3272.70;67.80
72338;DHT22;60294;64.134;-21.862;2022-12-10T15:30:59;-3272.50;68.10
72338;DHT22;60294;64.134;-21.862;2022-12-10T15:33:44;-3272.40;69.10
72338;DHT22;60294;64.134;-21.862;2022-12-10T15:36:34;-3272.30;69.60
72338;DHT22;60294;64.134;-21.862;2022-12-10T15:39:31;-3272.20;69.80
72338;DHT22;60294;64.134;-21.862;2022-12-10T15:42:07;-3272.10;70.10
72338;DHT22;60294;64.134;-21.862;2022-12-10T15:44:37;-3272.10;70.40
72338;DHT22;60294;64.134;-21.862;2022-12-10T15:47:19;-3272.00;70.80
72338;DHT22;60294;64.134;-21.862;2022-12-10T15:49:46;-3271.90;71.20
72338;DHT22;60294;64.134;-21.862;2022-12-10T15:52:17;-3271.90;71.70
72338;DHT22;60294;64.134;-21.862;2022-12-10T15:54:46;-3271.90;72.10
72338;DHT22;60294;64.134;-21.862;2022-12-10T15:57:17;-3271.90;71.80
72338;DHT22;60294;64.134;-21.862;2022-12-10T15:59:44;-3272.00;71.80
72338;DHT22;60294;64.134;-21.862;2022-12-10T16:04:54;-3272.00;71.40
72338;DHT22;60294;64.134;-21.862;2022-12-10T16:07:20;-3271.90;71.30
72338;DHT22;60294;64.134;-21.862;2022-12-10T16:09:46;-3271.90;71.60
72338;DHT22;60294;64.134;-21.862;2022-12-10T16:12:13;-3271.90;71.60
72338;DHT22;60294;64.134;-21.862;2022-12-10T16:14:48;-3271.80;71.60
72338;DHT22;60294;64.134;-21.862;2022-12-10T16:17:15;-3271.80;71.50
72338;DHT22;60294;64.134;-21.862;2022-12-10T16:19:41;-3271.80;71.30
72338;DHT22;60294;64.134;-21.862;2022-12-10T16:22:07;-3271.80;71.50
72338;DHT22;60294;64.134;-21.862;2022-12-10T16:24:32;-3271.70;71.10
72338;DHT22;60294;64.134;-21.862;2022-12-10T16:26:58;-3271.70;71.30
72338;DHT22;60294;64.134;-21.862;2022-12-10T16:29:24;-3271.70;71.40
72338;DHT22;60294;64.134;-21.862;2022-12-10T16:31:50;-3271.70;71.70
72338;DHT22;60294;64.134;-21.862;2022-12-10T16:34:15;-3271.70;71.50
72338;DHT22;60294;64.134;-21.862;2022-12-10T16:36:41;-3271.70;71.60